createdAt,value
2017-08-22T00:02:05.585Z,18.52
2017-08-22T00:04:33.133Z,18.52
2017-08-22T00:07:00.684Z,18.50
2017-08-22T00:09:28.271Z,18.48
2017-08-22T00:11:56.030Z,18.47
2017-08-22T00:14:23.532Z,18.28
2017-08-22T00:16:51.108Z,18.26
2017-08-22T00:19:18.966Z,18.16
2017-08-22T00:21:46.461Z,18.16
2017-08-22T00:24:14.036Z,18.19
2017-08-22T00:26:41.579Z,18.19
2017-08-22T00:29:09.140Z,18.25
2017-08-22T00:31:36.701Z,18.26
2017-08-22T00:34:04.263Z,18.22
2017-08-22T00:36:31.783Z,18.25
2017-08-22T00:38:59.988Z,18.31
2017-08-22T00:41:28.287Z,18.31
2017-08-22T00:43:55.897Z,18.12
2017-08-22T00:46:23.460Z,18.03
2017-08-22T00:48:51.033Z,18.11
2017-08-22T00:51:18.663Z,18.04
2017-08-22T00:53:47.174Z,17.94
2017-08-22T00:56:14.695Z,18.01
2017-08-22T00:58:42.443Z,18.01
2017-08-22T01:01:10.014Z,17.86
2017-08-22T01:03:37.551Z,17.80
2017-08-22T01:06:05.111Z,17.63
2017-08-22T01:08:32.652Z,17.58
2017-08-22T01:11:00.189Z,17.43
2017-08-22T01:13:27.950Z,17.31
2017-08-22T01:15:55.539Z,17.43
2017-08-22T01:18:23.066Z,17.26
2017-08-22T01:20:50.601Z,17.31
2017-08-22T01:23:18.169Z,17.51
2017-08-22T01:25:45.979Z,17.45
2017-08-22T01:28:13.530Z,17.27
2017-08-22T01:30:41.086Z,17.07
2017-08-22T01:33:08.630Z,17.21
2017-08-22T01:35:36.222Z,17.16
2017-08-22T01:38:03.834Z,17.20
2017-08-22T01:40:31.472Z,17.09
2017-08-22T01:42:59.037Z,17.30
2017-08-22T01:45:26.645Z,17.24
2017-08-22T01:47:54.200Z,17.23
2017-08-22T01:50:21.736Z,17.35
2017-08-22T01:52:49.325Z,17.27
2017-08-22T01:55:16.888Z,17.23
2017-08-22T01:57:44.419Z,17.22
2017-08-22T02:00:12.007Z,17.08
2017-08-22T02:02:39.532Z,17.28
2017-08-22T02:05:07.054Z,17.28
2017-08-22T02:07:34.860Z,17.23
2017-08-22T02:10:02.949Z,17.17
2017-08-22T02:12:30.911Z,17.14
2017-08-22T02:14:58.462Z,17.12
2017-08-22T02:17:25.982Z,17.01
2017-08-22T02:19:53.505Z,16.90
2017-08-22T02:22:21.081Z,17.18
2017-08-22T02:24:48.602Z,17.21
2017-08-22T02:27:16.131Z,17.26
2017-08-22T02:29:43.703Z,17.00
2017-08-22T02:32:11.285Z,16.95
2017-08-22T02:34:38.813Z,17.12
2017-08-22T02:37:06.316Z,17.13
2017-08-22T02:39:33.868Z,17.04
2017-08-22T02:42:01.382Z,16.96
2017-08-22T02:44:29.234Z,16.99
2017-08-22T02:46:56.789Z,17.09
2017-08-22T02:49:24.348Z,17.10
2017-08-22T02:51:51.900Z,17.04
2017-08-22T02:54:19.451Z,17.18
2017-08-22T02:56:47.235Z,17.07
2017-08-22T02:59:14.787Z,16.96
2017-08-22T03:01:42.363Z,16.94
2017-08-22T03:04:09.907Z,16.94
2017-08-22T03:06:37.490Z,17.02
2017-08-22T03:09:05.056Z,16.96
2017-08-22T03:11:32.820Z,16.90
2017-08-22T03:14:00.325Z,16.97
2017-08-22T03:16:27.853Z,16.92
2017-08-22T03:18:56.230Z,16.84
2017-08-22T03:21:23.839Z,16.89
2017-08-22T03:23:51.556Z,16.93
2017-08-22T03:26:19.696Z,17.03
2017-08-22T03:28:47.350Z,16.99
2017-08-22T03:31:15.062Z,16.78
2017-08-22T03:33:42.595Z,16.74
2017-08-22T03:36:10.126Z,16.75
2017-08-22T03:38:37.798Z,16.75
2017-08-22T03:41:05.605Z,16.73
2017-08-22T03:43:33.479Z,16.65
2017-08-22T03:46:01.195Z,16.64
2017-08-22T03:48:28.767Z,16.66
2017-08-22T03:50:56.578Z,16.59
2017-08-22T03:53:24.211Z,16.79
2017-08-22T03:55:51.820Z,16.69
2017-08-22T03:58:19.449Z,16.65
2017-08-22T04:00:46.998Z,16.65
2017-08-22T04:03:14.501Z,16.56
2017-08-22T04:05:42.963Z,16.73
2017-08-22T04:08:10.530Z,16.70
2017-08-22T04:10:38.056Z,16.53
2017-08-22T04:13:05.589Z,16.70
2017-08-22T04:15:33.136Z,16.79
2017-08-22T04:18:00.645Z,16.85
2017-08-22T04:20:28.165Z,16.85
2017-08-22T04:22:55.808Z,16.75
2017-08-22T04:25:23.348Z,16.78
2017-08-22T04:27:50.896Z,16.81
2017-08-22T04:30:18.583Z,16.78
2017-08-22T04:32:46.147Z,16.66
2017-08-22T04:35:13.697Z,16.60
2017-08-22T04:37:41.485Z,16.54
2017-08-22T04:40:09.261Z,16.58
2017-08-22T04:42:36.884Z,16.78
2017-08-22T04:45:04.457Z,16.65
2017-08-22T04:47:32.198Z,16.81
2017-08-22T04:49:59.965Z,16.82
2017-08-22T04:52:27.752Z,16.85
2017-08-22T04:54:55.267Z,16.92
2017-08-22T04:57:22.854Z,17.14
2017-08-22T04:59:50.425Z,17.17
2017-08-22T05:02:17.977Z,17.16
2017-08-22T05:04:45.498Z,17.15
2017-08-22T05:07:13.015Z,17.46
2017-08-22T05:09:40.568Z,17.26
2017-08-22T05:12:08.108Z,17.54
2017-08-22T05:14:35.655Z,17.62
2017-08-22T05:17:03.251Z,17.71
2017-08-22T05:19:30.811Z,17.62
2017-08-22T05:21:58.396Z,17.68
2017-08-22T05:24:25.954Z,17.86
2017-08-22T05:26:53.519Z,17.74
2017-08-22T05:29:21.102Z,17.92
2017-08-22T05:31:48.739Z,17.77
2017-08-22T05:34:16.294Z,18.08
2017-08-22T05:36:43.815Z,18.22
2017-08-22T05:39:11.511Z,18.98
2017-08-22T05:41:39.032Z,20.22
2017-08-22T05:44:07.181Z,21.24
2017-08-22T05:46:34.755Z,20.86
2017-08-22T05:49:03.440Z,21.54
2017-08-22T05:51:31.033Z,21.89
2017-08-22T05:53:58.601Z,22.20
2017-08-22T05:56:26.182Z,21.70
2017-08-22T05:58:53.701Z,22.12
2017-08-22T06:01:21.278Z,22.01
2017-08-22T06:03:48.817Z,22.10
2017-08-22T06:06:16.354Z,21.89
2017-08-22T06:08:43.965Z,22.37
2017-08-22T06:11:11.729Z,21.36
2017-08-22T06:13:39.269Z,22.43
2017-08-22T06:16:06.869Z,22.56
2017-08-22T06:18:34.642Z,22.82
2017-08-22T06:21:02.294Z,22.86
2017-08-22T06:23:29.909Z,23.04
2017-08-22T06:25:57.682Z,21.37
2017-08-22T06:28:25.203Z,20.97
2017-08-22T06:30:52.808Z,21.31
2017-08-22T06:33:20.329Z,21.54
2017-08-22T06:35:47.887Z,21.67
2017-08-22T06:38:15.486Z,21.23
2017-08-22T06:40:43.091Z,21.77
2017-08-22T06:43:10.664Z,21.48
2017-08-22T06:45:38.256Z,21.11
2017-08-22T06:48:05.818Z,20.88
2017-08-22T06:50:33.559Z,21.01
2017-08-22T06:53:01.160Z,21.50
2017-08-22T06:55:28.731Z,21.47
2017-08-22T06:57:56.310Z,22.15
2017-08-22T07:00:24.034Z,21.90
2017-08-22T07:02:51.533Z,22.05
2017-08-22T07:05:19.062Z,22.46
2017-08-22T07:07:46.623Z,22.46
2017-08-22T07:10:14.428Z,22.37
2017-08-22T07:12:41.968Z,22.58
2017-08-22T07:15:09.549Z,23.10
2017-08-22T07:17:37.073Z,22.90
2017-08-22T07:20:04.597Z,22.77
2017-08-22T07:22:32.138Z,22.70
2017-08-22T07:24:59.676Z,22.81
2017-08-22T07:27:27.188Z,22.53
2017-08-22T07:29:54.763Z,23.30
2017-08-22T07:32:22.300Z,23.75
2017-08-22T07:34:49.829Z,23.13
2017-08-22T07:37:17.384Z,23.63
2017-08-22T07:39:44.930Z,22.99
2017-08-22T07:42:12.466Z,22.63
2017-08-22T07:44:40.236Z,23.12
2017-08-22T07:47:07.804Z,23.25
2017-08-22T07:49:35.360Z,23.87
2017-08-22T07:52:02.967Z,23.83
2017-08-22T07:54:30.587Z,24.35
2017-08-22T07:56:59.012Z,24.22
2017-08-22T07:59:26.616Z,24.15
2017-08-22T08:01:54.185Z,24.40
2017-08-22T08:04:21.928Z,24.14
2017-08-22T08:06:49.452Z,24.37
2017-08-22T08:09:17.727Z,25.19
2017-08-22T08:11:45.266Z,25.22
2017-08-22T08:14:12.807Z,25.28
2017-08-22T08:16:40.401Z,24.58
2017-08-22T08:19:08.260Z,24.54
2017-08-22T08:21:35.837Z,25.36
2017-08-22T08:24:03.419Z,24.72
2017-08-22T08:26:31.239Z,24.97
2017-08-22T08:28:59.024Z,24.48
2017-08-22T08:31:26.633Z,24.65
2017-08-22T08:33:54.226Z,24.74
2017-08-22T08:36:21.832Z,24.54
2017-08-22T08:38:49.402Z,24.26
2017-08-22T08:41:16.943Z,24.96
2017-08-22T08:43:44.528Z,25.27
2017-08-22T08:46:12.119Z,25.70
2017-08-22T08:48:39.628Z,25.59
2017-08-22T08:51:07.170Z,25.45
2017-08-22T08:53:34.729Z,25.53
2017-08-22T08:56:02.311Z,25.92
2017-08-22T08:58:29.874Z,25.58
2017-08-22T09:00:57.453Z,25.71
2017-08-22T09:03:24.966Z,25.60
2017-08-22T09:05:52.475Z,25.51
2017-08-22T09:08:20.013Z,25.76
2017-08-22T09:10:47.543Z,26.26
2017-08-22T09:13:15.063Z,26.36
2017-08-22T09:15:42.616Z,26.22
2017-08-22T09:18:10.180Z,26.14
2017-08-22T09:20:37.740Z,25.89
2017-08-22T09:23:05.314Z,26.36
2017-08-22T09:25:33.060Z,27.35
2017-08-22T09:28:00.648Z,27.24
2017-08-22T09:30:28.274Z,27.18
2017-08-22T09:32:55.833Z,27.52
2017-08-22T09:35:23.584Z,27.46
2017-08-22T09:37:51.366Z,26.98
2017-08-22T09:40:18.932Z,27.40
2017-08-22T09:42:46.507Z,27.91
2017-08-22T09:45:14.066Z,27.97
2017-08-22T09:47:41.581Z,27.66
2017-08-22T09:50:09.321Z,28.03
2017-08-22T09:52:36.899Z,27.80
2017-08-22T09:55:04.461Z,26.89
2017-08-22T09:57:32.000Z,26.73
2017-08-22T09:59:59.576Z,26.31
2017-08-22T10:02:27.170Z,26.43
2017-08-22T10:04:54.737Z,26.44
2017-08-22T10:07:22.252Z,26.32
2017-08-22T10:09:49.859Z,26.50
2017-08-22T10:12:17.420Z,26.81
2017-08-22T10:14:45.189Z,27.48
2017-08-22T10:17:12.780Z,27.03
2017-08-22T10:19:40.379Z,27.32
2017-08-22T10:22:08.082Z,27.80
2017-08-22T10:24:35.758Z,28.15
2017-08-22T10:27:03.331Z,28.40
2017-08-22T10:29:30.958Z,28.51
2017-08-22T10:31:58.696Z,28.79
2017-08-22T10:34:26.348Z,28.20
2017-08-22T10:36:53.910Z,28.36
2017-08-22T10:39:21.491Z,28.20
2017-08-22T10:41:49.066Z,27.67
2017-08-22T10:44:16.650Z,27.30
2017-08-22T10:46:44.251Z,27.39
2017-08-22T10:49:12.422Z,27.70
2017-08-22T10:51:40.083Z,27.57
2017-08-22T10:54:07.732Z,27.60
2017-08-22T10:56:35.308Z,26.30
2017-08-22T10:59:02.859Z,26.98
2017-08-22T11:01:30.611Z,27.68
2017-08-22T11:03:58.231Z,27.41
2017-08-22T11:06:26.102Z,27.68
2017-08-22T11:08:54.540Z,27.58
2017-08-22T11:11:22.852Z,27.63
2017-08-22T11:13:50.670Z,27.04
2017-08-22T11:16:18.302Z,26.66
2017-08-22T11:18:45.913Z,27.29
2017-08-22T11:21:13.452Z,26.26
2017-08-22T11:23:41.080Z,26.66
2017-08-22T11:26:08.642Z,27.23
2017-08-22T11:28:36.225Z,26.26
2017-08-22T11:31:03.858Z,25.47
2017-08-22T11:33:31.409Z,26.06
2017-08-22T11:35:59.035Z,24.76
2017-08-22T11:38:26.650Z,25.29
2017-08-22T11:40:54.508Z,25.57
2017-08-22T11:43:22.130Z,25.96
2017-08-22T11:45:49.710Z,26.41
2017-08-22T11:48:17.459Z,26.75
2017-08-22T11:50:45.029Z,26.49
2017-08-22T11:53:12.627Z,26.74
2017-08-22T11:55:40.445Z,26.83
2017-08-22T11:58:08.329Z,26.61
2017-08-22T12:00:35.939Z,26.84
2017-08-22T12:03:03.515Z,26.26
2017-08-22T12:05:31.116Z,25.98
2017-08-22T12:07:58.699Z,26.29
2017-08-22T12:10:26.309Z,26.45
2017-08-22T12:12:53.915Z,26.44
2017-08-22T12:15:21.780Z,26.75
2017-08-22T12:17:49.355Z,26.74
2017-08-22T12:20:16.976Z,26.63
2017-08-22T12:22:44.629Z,26.75
2017-08-22T12:25:12.301Z,26.90
2017-08-22T12:27:40.052Z,26.61
2017-08-22T12:30:07.734Z,26.69
2017-08-22T12:32:35.370Z,26.94
2017-08-22T12:35:03.110Z,26.88
2017-08-22T12:37:30.749Z,27.15
2017-08-22T12:39:59.048Z,27.40
2017-08-22T12:42:26.815Z,27.54
2017-08-22T12:44:54.415Z,27.59
2017-08-22T12:47:21.988Z,27.66
2017-08-22T12:49:49.641Z,27.15
2017-08-22T12:52:17.231Z,27.17
2017-08-22T12:54:45.497Z,27.22
2017-08-22T12:57:13.040Z,27.68
2017-08-22T12:59:40.593Z,27.66
2017-08-22T13:02:08.172Z,27.31
2017-08-22T13:04:35.745Z,26.90
2017-08-22T13:07:03.261Z,26.68
2017-08-22T13:09:30.875Z,26.69
2017-08-22T13:11:58.389Z,26.49
2017-08-22T13:14:26.253Z,26.44
2017-08-22T13:16:53.817Z,26.44
2017-08-22T13:19:21.440Z,26.58
2017-08-22T13:21:49.201Z,26.54
2017-08-22T13:24:16.788Z,26.02
2017-08-22T13:26:44.341Z,26.18
2017-08-22T13:29:11.919Z,26.25
2017-08-22T13:31:39.495Z,26.31
2017-08-22T13:34:07.049Z,26.49
2017-08-22T13:36:34.606Z,26.68
2017-08-22T13:39:02.451Z,26.71
2017-08-22T13:41:30.033Z,26.59
2017-08-22T13:43:57.617Z,26.49
2017-08-22T13:46:25.201Z,26.15
2017-08-22T13:48:52.705Z,25.86
2017-08-22T13:51:20.473Z,26.36
2017-08-22T13:53:48.087Z,26.34
2017-08-22T13:56:15.655Z,25.94
2017-08-22T13:58:43.241Z,25.86
2017-08-22T14:01:10.876Z,25.88
2017-08-22T14:03:38.466Z,25.95
2017-08-22T14:06:06.009Z,26.03
2017-08-22T14:08:33.593Z,26.27
2017-08-22T14:11:01.160Z,26.28
2017-08-22T14:13:28.734Z,26.29
2017-08-22T14:15:56.337Z,26.14
2017-08-22T14:18:23.905Z,26.12
2017-08-22T14:20:51.500Z,25.94
2017-08-22T14:23:19.076Z,25.98
2017-08-22T14:25:46.611Z,26.01
2017-08-22T14:28:14.489Z,25.94
2017-08-22T14:30:42.283Z,25.98
2017-08-22T14:33:09.849Z,25.97
2017-08-22T14:35:37.434Z,25.99
2017-08-22T14:38:05.013Z,25.97
2017-08-22T14:40:32.590Z,25.91
2017-08-22T14:43:00.161Z,25.96
2017-08-22T14:45:27.947Z,25.77
2017-08-22T14:47:55.532Z,25.58
2017-08-22T14:50:23.079Z,25.46
2017-08-22T14:52:50.709Z,25.44
2017-08-22T14:55:18.249Z,25.36
2017-08-22T14:57:45.793Z,25.34
2017-08-22T15:00:13.457Z,25.32
2017-08-22T15:02:40.994Z,25.49
2017-08-22T15:05:08.956Z,25.42
2017-08-22T15:07:36.771Z,25.29
2017-08-22T15:10:05.342Z,25.38
2017-08-22T15:12:32.933Z,25.38
2017-08-22T15:15:00.556Z,25.21
2017-08-22T15:17:28.069Z,25.01
2017-08-22T15:19:55.635Z,24.73
2017-08-22T15:22:23.423Z,24.73
2017-08-22T15:24:50.943Z,24.47
2017-08-22T15:27:18.464Z,24.53
2017-08-22T15:29:45.997Z,24.22
2017-08-22T15:32:13.566Z,24.34
2017-08-22T15:34:41.074Z,24.20
2017-08-22T15:37:08.668Z,24.17
2017-08-22T15:39:36.257Z,24.01
2017-08-22T15:42:03.773Z,23.84
2017-08-22T15:44:31.307Z,23.80
2017-08-22T15:46:58.879Z,23.88
2017-08-22T15:49:26.408Z,23.92
2017-08-22T15:51:53.932Z,23.87
2017-08-22T15:54:21.506Z,23.87
2017-08-22T15:56:49.021Z,23.82
2017-08-22T15:59:16.539Z,23.83
2017-08-22T16:01:44.098Z,23.75
2017-08-22T16:04:11.617Z,23.71
2017-08-22T16:06:39.197Z,23.67
2017-08-22T16:09:06.764Z,23.67
2017-08-22T16:11:34.309Z,23.42
2017-08-22T16:14:01.913Z,23.58
2017-08-22T16:16:29.449Z,23.69
2017-08-22T16:18:57.202Z,23.49
2017-08-22T16:21:24.715Z,23.49
2017-08-22T16:23:52.302Z,23.57
2017-08-22T16:26:19.817Z,23.50
2017-08-22T16:28:47.405Z,23.40
2017-08-22T16:31:14.949Z,23.50
2017-08-22T16:33:42.472Z,23.48
2017-08-22T16:36:09.980Z,23.36
2017-08-22T16:38:37.563Z,23.36
2017-08-22T16:41:05.104Z,23.29
2017-08-22T16:43:32.619Z,23.32
2017-08-22T16:46:00.262Z,23.34
2017-08-22T16:48:27.796Z,23.38
2017-08-22T16:50:55.411Z,23.28
2017-08-22T16:53:22.960Z,23.14
2017-08-22T16:55:50.494Z,23.12
2017-08-22T16:58:18.554Z,23.13
2017-08-22T17:00:46.107Z,23.06
2017-08-22T17:03:13.908Z,22.95
2017-08-22T17:05:41.412Z,23.01
2017-08-22T17:08:09.006Z,22.90
2017-08-22T17:10:36.581Z,22.82
2017-08-22T17:13:04.379Z,22.77
2017-08-22T17:15:32.163Z,22.81
2017-08-22T17:17:59.697Z,22.80
2017-08-22T17:20:27.387Z,22.79
2017-08-22T17:22:54.970Z,22.74
2017-08-22T17:25:22.497Z,22.70
2017-08-22T17:27:50.035Z,22.59
2017-08-22T17:30:17.595Z,22.67
2017-08-22T17:32:45.866Z,22.66
2017-08-22T17:35:13.380Z,22.83
2017-08-22T17:37:40.967Z,22.78
2017-08-22T17:40:09.305Z,22.54
2017-08-22T17:42:36.807Z,22.41
2017-08-22T17:45:04.955Z,22.40
2017-08-22T17:47:32.684Z,22.28
2017-08-22T17:50:00.225Z,22.08
2017-08-22T17:52:27.796Z,22.07
2017-08-22T17:54:55.564Z,22.07
2017-08-22T17:57:23.328Z,22.12
2017-08-22T17:59:50.863Z,22.03
2017-08-22T18:02:18.486Z,21.91
2017-08-22T18:04:46.780Z,21.92
2017-08-22T18:07:14.305Z,21.82
2017-08-22T18:09:41.852Z,21.90
2017-08-22T18:12:09.400Z,21.72
2017-08-22T18:14:36.923Z,21.88
2017-08-22T18:17:04.465Z,21.82
2017-08-22T18:19:32.260Z,21.73
2017-08-22T18:21:59.788Z,21.60
2017-08-22T18:24:28.159Z,21.52
2017-08-22T18:26:55.906Z,21.48
2017-08-22T18:29:23.443Z,21.40
2017-08-22T18:31:51.044Z,21.33
2017-08-22T18:34:19.290Z,21.34
2017-08-22T18:36:46.796Z,21.36
2017-08-22T18:39:14.394Z,21.07
2017-08-22T18:41:42.009Z,21.12
2017-08-22T18:44:09.585Z,21.09
2017-08-22T18:46:37.155Z,21.13
2017-08-22T18:49:05.830Z,21.16
2017-08-22T18:51:33.345Z,21.08
2017-08-22T18:54:01.032Z,21.12
2017-08-22T18:56:28.650Z,20.97
2017-08-22T18:58:56.765Z,21.08
2017-08-22T19:01:24.327Z,21.06
2017-08-22T19:03:51.885Z,21.01
2017-08-22T19:06:19.412Z,20.98
2017-08-22T19:08:46.993Z,20.94
2017-08-22T19:11:14.525Z,20.95
2017-08-22T19:13:42.080Z,20.90
2017-08-22T19:16:09.649Z,20.88
2017-08-22T19:18:37.201Z,20.96
2017-08-22T19:21:05.763Z,21.05
2017-08-22T19:23:33.305Z,20.98
2017-08-22T19:26:01.116Z,20.92
2017-08-22T19:28:28.667Z,20.78
2017-08-22T19:30:56.230Z,20.71
2017-08-22T19:33:23.747Z,20.70
2017-08-22T19:35:51.307Z,20.63
2017-08-22T19:38:18.841Z,20.78
2017-08-22T19:40:46.368Z,20.77
2017-08-22T19:43:15.039Z,20.76
2017-08-22T19:45:42.591Z,20.63
2017-08-22T19:48:10.346Z,20.61
2017-08-22T19:50:37.861Z,20.51
2017-08-22T19:53:05.448Z,20.49
2017-08-22T19:55:33.253Z,20.55
2017-08-22T19:58:00.764Z,20.54
2017-08-22T20:00:28.351Z,20.93
2017-08-22T20:02:55.939Z,22.23
2017-08-22T20:05:23.461Z,22.13
2017-08-22T20:07:51.122Z,21.52
2017-08-22T20:10:18.871Z,21.22
2017-08-22T20:12:46.448Z,20.91
2017-08-22T20:15:14.020Z,20.62
2017-08-22T20:17:41.526Z,20.46
2017-08-22T20:20:09.025Z,20.50
2017-08-22T20:22:36.613Z,20.41
2017-08-22T20:25:04.145Z,20.34
2017-08-22T20:27:31.744Z,20.10
2017-08-22T20:29:59.293Z,20.21
2017-08-22T20:32:27.136Z,20.11
2017-08-22T20:34:54.671Z,19.98
2017-08-22T20:37:22.243Z,20.05
2017-08-22T20:39:49.844Z,20.03
2017-08-22T20:42:17.363Z,19.90
2017-08-22T20:44:44.916Z,19.88
2017-08-22T20:47:12.487Z,19.93
2017-08-22T20:49:40.762Z,19.86
2017-08-22T20:52:08.313Z,19.73
2017-08-22T20:54:35.900Z,19.86
2017-08-22T20:57:03.440Z,19.74
2017-08-22T20:59:30.994Z,19.75
2017-08-22T21:01:58.566Z,19.70
2017-08-22T21:04:26.514Z,19.67
2017-08-22T21:06:54.059Z,19.52
2017-08-22T21:09:22.072Z,19.55
2017-08-22T21:11:49.661Z,19.46
2017-08-22T21:14:17.204Z,19.52
2017-08-22T21:16:44.798Z,19.44
2017-08-22T21:19:12.317Z,19.32
2017-08-22T21:21:39.855Z,19.28
2017-08-22T21:24:07.446Z,19.17
2017-08-22T21:26:35.211Z,19.34
2017-08-22T21:29:02.751Z,19.42
2017-08-22T21:31:31.149Z,19.46
2017-08-22T21:33:58.710Z,19.53
2017-08-22T21:36:26.266Z,19.42
2017-08-22T21:38:53.821Z,19.47
2017-08-22T21:41:21.361Z,19.34
2017-08-22T21:43:48.935Z,19.30
2017-08-22T21:46:16.530Z,19.39
2017-08-22T21:48:44.091Z,19.17
2017-08-22T21:51:11.675Z,19.35
2017-08-22T21:53:39.264Z,19.24
2017-08-22T21:56:06.832Z,19.15
2017-08-22T21:58:34.346Z,19.17
2017-08-22T22:01:01.909Z,19.22
2017-08-22T22:03:29.445Z,19.19
2017-08-22T22:05:56.963Z,19.23
2017-08-22T22:08:24.861Z,19.27
2017-08-22T22:10:52.428Z,19.34
2017-08-22T22:13:19.995Z,19.29
2017-08-22T22:15:47.575Z,19.38
2017-08-22T22:18:15.101Z,19.36
2017-08-22T22:20:42.668Z,19.32
2017-08-22T22:23:10.268Z,19.33
2017-08-22T22:25:37.828Z,19.34
2017-08-22T22:28:05.412Z,19.32
2017-08-22T22:30:33.902Z,19.40
2017-08-22T22:33:01.457Z,19.36
2017-08-22T22:35:29.200Z,19.34
2017-08-22T22:37:56.780Z,19.43
2017-08-22T22:40:24.348Z,19.36
2017-08-22T22:42:51.891Z,19.37
2017-08-22T22:45:19.439Z,19.25
2017-08-22T22:47:46.960Z,19.25
2017-08-22T22:50:14.718Z,19.21
2017-08-22T22:52:42.324Z,19.32
2017-08-22T22:55:09.884Z,19.32
2017-08-22T22:57:37.511Z,19.11
2017-08-22T23:00:07.608Z,19.20
2017-08-22T23:02:35.162Z,19.38
2017-08-22T23:05:02.700Z,19.39
2017-08-22T23:07:30.282Z,19.53
2017-08-22T23:09:57.809Z,19.43
2017-08-22T23:12:25.355Z,19.18
2017-08-22T23:14:52.952Z,19.17
2017-08-22T23:17:20.821Z,18.86
2017-08-22T23:19:48.339Z,18.74
2017-08-22T23:22:15.889Z,18.64
2017-08-22T23:24:43.416Z,18.49
2017-08-22T23:27:10.936Z,18.44
2017-08-22T23:29:38.489Z,18.45
2017-08-22T23:32:06.079Z,18.46
2017-08-22T23:34:33.620Z,18.24
2017-08-22T23:37:01.138Z,18.18
2017-08-22T23:39:28.717Z,18.07
2017-08-22T23:41:56.249Z,18.08
2017-08-22T23:44:24.001Z,17.98
2017-08-22T23:46:51.587Z,18.06
2017-08-22T23:49:19.164Z,18.11
2017-08-22T23:51:46.685Z,17.96
2017-08-22T23:54:14.924Z,17.92
2017-08-22T23:56:42.438Z,17.90
2017-08-22T23:59:09.980Z,17.66
